CZ-0014 weather

Public forecast

Using degrees Celsius for public forecast. Weather courtesy of forecast.io.

Closest aviation weather report (METAR) to Nová Amerika Heliport

Closest report is Pardubice Airport, 22.6 nm (41.8 km) SSW. Retrieved 2020/08/09 08:30 UTC (0 seconds ago):

LKPD 090830Z 31003KT 260V360 CAVOK 25/18 Q1020 NOSIG

Closest aviation forecast (TAF) to Nová Amerika Heliport

Closest forecast is Pardubice Airport, 22.6 nm (41.8 km) SSW. Retrieved 2020/08/09 06:06 UTC (2 hours ago):

TAF LKPD 090500Z 0906/1006 VRB02KT CAVOK TEMPO 0912/0917 06007KT SCT040TCU